Time;durP1;ratioP1;P1;durP2;ratioP2;P2;SDS_P1;SDS_P2;PMS_P1;PMS_P2;Temp;Humidity;BMP_temperature;BMP_pressure;BME280_temperature;BME280_humidity;BME280_pressure;Samples;Min_cycle;Max_cycle;Signal;HPM_P1;HPM_P2
2023/01/31 00:00:54;;;;;;;20.95;3.92;;;;;;;3.95;100.00;102233.78;4796221;29;20046;-71
2023/01/31 00:03:20;;;;;;;13.23;3.20;;;;;;;4.02;100.00;102219.53;4789841;29;20042;-74
2023/01/31 00:05:45;;;;;;;15.63;3.65;;;;;;;4.16;100.00;102216.84;4796072;29;20054;-73
2023/01/31 00:08:12;;;;;;;19.83;3.65;;;;;;;3.83;100.00;102219.53;4799741;29;20043;-72
2023/01/31 00:10:38;;;;;;;18.67;3.03;;;;;;;3.93;100.00;102224.13;4796059;29;20035;-72
2023/01/31 00:13:03;;;;;;;27.88;3.83;;;;;;;3.79;100.00;102224.84;4795785;29;20042;-72
2023/01/31 00:15:29;;;;;;;13.02;2.72;;;;;;;3.80;100.00;102218.19;4789953;29;20062;-72
2023/01/31 00:17:54;;;;;;;14.57;2.75;;;;;;;3.85;100.00;102215.34;4789224;29;20038;-72
2023/01/31 00:20:20;;;;;;;22.65;4.78;;;;;;;4.00;100.00;102224.56;4793005;29;20045;-72
2023/01/31 00:22:45;;;;;;;17.95;2.53;;;;;;;3.74;100.00;102224.94;4797744;29;20071;-72
2023/01/31 00:25:10;;;;;;;14.68;2.97;;;;;;;3.86;100.00;102227.28;4786784;29;20241;-73
2023/01/31 00:27:36;;;;;;;13.18;3.70;;;;;;;3.99;100.00;102209.88;4792253;29;20166;-72
2023/01/31 00:30:01;;;;;;;27.15;3.40;;;;;;;3.61;100.00;102209.06;4790293;29;20087;-73
2023/01/31 00:32:27;;;;;;;11.70;3.00;;;;;;;3.76;100.00;102214.38;4792099;29;20039;-73
2023/01/31 00:34:53;;;;;;;11.77;2.60;;;;;;;3.61;100.00;102225.69;4794101;29;20037;-73
2023/01/31 00:37:20;;;;;;;17.73;3.65;;;;;;;3.64;100.00;102220.34;4791763;29;20520;-72
2023/01/31 00:39:45;;;;;;;12.52;3.20;;;;;;;3.63;100.00;102207.63;4793883;29;20057;-73
2023/01/31 00:42:11;;;;;;;14.95;4.50;;;;;;;3.80;100.00;102198.00;4795054;29;20404;-72
2023/01/31 00:44:36;;;;;;;13.88;3.40;;;;;;;3.70;100.00;102187.88;4794423;29;20719;-73
2023/01/31 00:47:01;;;;;;;16.20;3.70;;;;;;;3.71;100.00;102186.78;4793397;29;20065;-72
2023/01/31 00:49:27;;;;;;;13.45;3.88;;;;;;;3.65;100.00;102185.19;4796997;29;20034;-73
2023/01/31 00:51:52;;;;;;;9.57;2.80;;;;;;;3.72;100.00;102185.63;4804200;29;20039;-72
2023/01/31 00:54:17;;;;;;;11.63;3.35;;;;;;;3.73;100.00;102184.53;4791305;29;20045;-73
2023/01/31 00:56:43;;;;;;;13.07;3.22;;;;;;;3.81;100.00;102169.97;4798789;29;20037;-72
2023/01/31 00:59:09;;;;;;;18.92;5.13;;;;;;;3.77;100.00;102177.25;4794485;29;20063;-73
2023/01/31 01:01:35;;;;;;;17.35;3.88;;;;;;;3.43;100.00;102175.50;4797015;29;20034;-73
2023/01/31 01:04:01;;;;;;;20.15;3.88;;;;;;;3.37;100.00;102175.88;4798116;29;20407;-73
2023/01/31 01:06:27;;;;;;;19.55;5.10;;;;;;;3.37;100.00;102182.25;4792338;29;20063;-73
2023/01/31 01:08:53;;;;;;;19.10;3.42;;;;;;;3.34;100.00;102180.06;4798883;29;20117;-72
2023/01/31 01:11:28;;;;;;;12.35;2.88;;;;;;;3.50;100.00;102179.84;4799119;29;20054;-72
2023/01/31 01:13:54;;;;;;;8.98;2.42;;;;;;;3.29;100.00;102188.44;4833306;24;20062;-83
2023/01/31 01:16:23;;;;;;;12.73;4.18;;;;;;;3.28;100.00;102178.50;4812852;29;20124;-83
2023/01/31 01:18:49;;;;;;;17.35;4.03;;;;;;;3.32;100.00;102178.72;4818844;29;20057;-83
2023/01/31 01:21:21;;;;;;;25.17;4.30;;;;;;;3.25;100.00;102184.63;4828608;29;20034;-83
2023/01/31 01:23:47;;;;;;;12.25;3.33;;;;;;;3.39;100.00;102177.22;4812760;29;20543;-83
2023/01/31 01:26:22;;;;;;;12.68;2.50;;;;;;;3.19;100.00;102180.28;4815490;29;20029;-83
2023/01/31 01:28:48;;;;;;;13.95;3.88;;;;;;;3.36;100.00;102179.78;4810501;29;20075;-83
2023/01/31 01:31:17;;;;;;;15.07;4.03;;;;;;;3.32;100.00;102195.34;4824206;29;20409;-83
2023/01/31 01:33:44;;;;;;;12.25;3.10;;;;;;;3.10;100.00;102193.94;4832393;29;20041;-83
2023/01/31 01:36:12;;;;;;;21.63;3.08;;;;;;;3.39;100.00;102193.84;4816364;29;20025;-83
2023/01/31 01:38:39;;;;;;;19.85;4.45;;;;;;;3.40;100.00;102197.44;4830017;29;20120;-83
2023/01/31 01:41:05;;;;;;;22.85;4.97;;;;;;;3.31;100.00;102202.81;4825121;29;20034;-83
2023/01/31 01:43:43;;;;;;;14.30;2.92;;;;;;;3.22;100.00;102201.81;4812948;29;20502;-83
2023/01/31 01:46:12;;;;;;;13.60;4.18;;;;;;;3.23;100.00;102197.94;4826207;29;20041;-83
2023/01/31 01:48:38;;;;;;;11.65;3.38;;;;;;;3.33;100.00;102196.97;4812143;29;20022;-83
2023/01/31 01:51:05;;;;;;;13.98;3.25;;;;;;;3.41;100.00;102193.53;4830459;29;20030;-83
2023/01/31 01:53:33;;;;;;;13.52;3.05;;;;;;;3.04;100.00;102193.16;4812519;29;20889;-83
2023/01/31 01:56:15;;;;;;;11.00;3.97;;;;;;;3.26;100.00;102198.16;4825995;29;20505;-83
2023/01/31 01:58:47;;;;;;;19.75;4.53;;;;;;;3.36;100.00;102202.75;4829536;29;20049;-83
2023/01/31 02:01:15;;;;;;;13.82;3.15;;;;;;;3.19;100.00;102186.63;4849748;29;20115;-83
2023/01/31 02:03:43;;;;;;;12.55;3.38;;;;;;;3.28;100.00;102178.50;4830626;29;20104;-82
2023/01/31 02:06:09;;;;;;;18.88;3.83;;;;;;;3.34;100.00;102182.84;4848796;29;20036;-82
2023/01/31 02:08:37;;;;;;;13.40;3.38;;;;;;;3.34;100.00;102177.31;4848197;29;20045;-83
2023/01/31 02:11:16;;;;;;;15.25;3.55;;;;;;;3.32;100.00;102175.97;4833038;29;20486;-83
2023/01/31 02:13:44;;;;;;;13.45;3.17;;;;;;;3.32;100.00;102176.78;4833746;29;20061;-83
2023/01/31 02:16:10;;;;;;;12.90;4.00;;;;;;;3.31;100.00;102172.38;4833206;29;20844;-83
2023/01/31 02:18:35;;;;;;;24.17;5.20;;;;;;;3.35;100.00;102165.13;4827957;29;20041;-83
2023/01/31 02:21:19;;;;;;;21.40;3.28;;;;;;;3.36;100.00;102157.66;4836196;29;20045;-83
2023/01/31 02:24:05;;;;;;;15.50;3.38;;;;;;;3.45;100.00;102172.44;4849414;29;20041;-83
2023/01/31 02:27:08;;;;;;;17.48;5.07;;;;;;;3.51;100.00;102162.16;4828832;29;20037;-83
2023/01/31 02:29:39;;;;;;;14.70;3.15;;;;;;;3.54;100.00;102156.84;4846431;29;20441;-83
2023/01/31 02:32:29;;;;;;;14.27;3.80;;;;;;;3.72;100.00;102144.09;4831436;29;20446;-83
2023/01/31 02:35:35;;;;;;;16.85;3.42;;;;;;;3.62;100.00;102149.78;4851942;29;20053;-83
2023/01/31 02:38:18;;;;;;;13.77;2.88;;;;;;;3.74;100.00;102141.03;4833921;29;20541;-83
2023/01/31 02:41:06;;;;;;;20.27;4.38;;;;;;;3.62;100.00;102144.25;4835184;29;21640;-83
2023/01/31 02:44:57;;;;;;;27.70;5.45;;;;;;;3.72;100.00;102130.25;4835694;29;20470;-83
2023/01/31 02:46:41;;;;;;;14.00;3.60;;;;;;;3.63;100.00;102129.28;4846200;29;20094;-83
2023/01/31 02:49:13;;;;;;;;;;;;;;;3.69;100.00;102132.78;4836160;29;20037;-83
2023/01/31 02:52:14;;;;;;;17.10;4.07;;;;;;;3.68;100.00;102120.91;4855167;29;19934;-83
2023/01/31 02:56:13;;;;;;;12.05;2.95;;;;;;;3.72;100.00;102110.88;4852592;29;20048;-82
2023/01/31 02:57:17;;;;;;;21.23;3.05;;;;;;;3.72;100.00;102116.41;4843732;29;20037;-82
2023/01/31 02:59:44;;;;;;;10.65;3.30;;;;;;;3.69;100.00;102116.19;4849697;29;20373;-82
2023/01/31 03:02:12;;;;;;;11.90;3.92;;;;;;;3.69;100.00;102099.56;4849224;29;20034;-83
2023/01/31 03:04:37;;;;;;;19.92;5.10;;;;;;;3.76;100.00;102109.16;4832120;29;20057;-82
2023/01/31 03:07:12;;;;;;;17.42;4.65;;;;;;;3.75;100.00;102107.47;4830238;29;20144;-82
2023/01/31 03:10:13;;;;;;;14.18;3.60;;;;;;;3.78;100.00;102112.44;4830302;29;20144;-82
2023/01/31 03:12:50;;;;;;;14.75;3.08;;;;;;;3.78;100.00;102109.66;4789350;29;20038;-82
2023/01/31 03:18:29;;;;;;;18.63;3.92;;;;;;;3.86;100.00;102108.97;4847788;29;20053;-82
2023/01/31 03:21:17;;;;;;;20.52;4.55;;;;;;;3.87;100.00;102110.63;4830615;29;20388;-83
2023/01/31 03:23:46;;;;;;;13.57;3.03;;;;;;;3.87;100.00;102113.38;4827308;29;20128;-82
2023/01/31 03:26:12;;;;;;;15.18;3.40;;;;;;;3.91;100.00;102115.56;4828706;29;20109;-83
2023/01/31 03:28:41;;;;;;;19.88;3.70;;;;;;;3.93;100.00;102116.09;4831296;29;20491;-83
2023/01/31 03:31:18;;;;;;;18.95;5.10;;;;;;;3.91;100.00;102108.06;4825750;29;20672;-82
2023/01/31 03:33:47;;;;;;;21.58;4.72;;;;;;;3.92;100.00;102097.81;4831561;29;20041;-82
2023/01/31 03:36:31;;;;;;;19.85;4.10;;;;;;;3.94;100.00;102103.88;4835347;29;20030;-83
2023/01/31 03:39:20;;;;;;;14.93;3.42;;;;;;;3.98;100.00;102096.59;4832463;29;20043;-83
2023/01/31 03:41:58;;;;;;;25.08;5.50;;;;;;;3.92;100.00;102086.72;4818636;29;20038;-83
2023/01/31 03:44:29;;;;;;;18.92;5.40;;;;;;;3.94;100.00;102088.06;4828954;29;20055;-82
2023/01/31 03:47:00;;;;;;;15.60;3.92;;;;;;;4.03;100.00;102088.22;4831174;29;20573;-82
2023/01/31 03:49:28;;;;;;;26.65;5.45;;;;;;;4.00;100.00;102088.81;4832212;29;20068;-82
2023/01/31 03:52:00;;;;;;;12.77;3.88;;;;;;;3.94;100.00;102082.53;4828271;29;20061;-82
2023/01/31 03:54:30;;;;;;;18.63;4.97;;;;;;;4.02;100.00;102089.31;4832270;29;20033;-82
2023/01/31 03:57:03;;;;;;;20.08;3.88;;;;;;;4.05;100.00;102074.88;4832506;29;20033;-83
2023/01/31 03:59:34;;;;;;;28.40;4.57;;;;;;;4.02;100.00;102081.81;4845795;29;20059;-82
2023/01/31 04:02:00;;;;;;;15.02;4.10;;;;;;;4.04;100.00;102073.22;4842067;29;20034;-83
2023/01/31 04:05:12;;;;;;;25.83;4.55;;;;;;;4.09;100.00;102078.69;4846945;29;20478;-83
2023/01/31 04:07:39;;;;;;;9.90;4.80;;;;;;;4.09;100.00;102070.38;4751772;30;20075;-83
2023/01/31 04:10:11;;;;;;;21.25;5.40;;;;;;;4.11;100.00;102072.81;4835385;29;20128;-83
2023/01/31 04:12:36;;;;;;;19.03;6.17;;;;;;;4.15;100.00;102071.91;4830224;29;20049;-82
2023/01/31 04:15:03;;;;;;;28.48;5.88;;;;;;;4.14;100.00;102077.78;4844514;29;20534;-83
2023/01/31 04:17:29;;;;;;;24.83;6.72;;;;;;;4.19;100.00;102070.16;4847551;29;20026;-83
2023/01/31 04:19:54;;;;;;;25.20;6.38;;;;;;;4.18;100.00;102068.53;4827964;29;20544;-83
2023/01/31 04:22:19;;;;;;;27.05;5.50;;;;;;;4.21;100.00;102051.28;4832818;29;20062;-83
2023/01/31 04:24:45;;;;;;;28.48;7.95;;;;;;;4.31;100.00;102060.56;4835434;24;20158;-83
2023/01/31 04:27:10;;;;;;;15.27;5.65;;;;;;;4.32;100.00;102057.44;4797929;29;20066;-83
2023/01/31 04:29:35;;;;;;;27.92;6.13;;;;;;;4.36;100.00;102063.22;4811609;29;20122;-83
2023/01/31 04:32:01;;;;;;;27.73;6.20;;;;;;;4.37;100.00;102064.88;4814324;29;20125;-82
2023/01/31 04:34:26;;;;;;;16.38;6.72;;;;;;;4.35;100.00;102050.50;4813347;29;20121;-82
2023/01/31 04:36:52;;;;;;;22.45;5.65;;;;;;;4.38;100.00;102056.22;4813593;29;20056;-82
2023/01/31 04:39:17;;;;;;;29.42;7.30;;;;;;;4.40;100.00;102047.59;4812761;29;20034;-82
2023/01/31 04:41:42;;;;;;;23.05;7.15;;;;;;;4.39;100.00;102045.97;4812556;29;20411;-83
2023/01/31 04:44:08;;;;;;;19.60;7.03;;;;;;;4.42;100.00;102045.34;4814109;29;20034;-83
2023/01/31 04:46:33;;;;;;;25.20;6.15;;;;;;;4.44;100.00;102032.00;4813950;29;20738;-82
2023/01/31 04:48:59;;;;;;;22.80;8.68;;;;;;;4.43;100.00;102022.06;4813482;29;20038;-83
2023/01/31 04:51:24;;;;;;;28.45;6.40;;;;;;;4.47;100.00;102014.78;4815398;29;20082;-83
2023/01/31 04:53:49;;;;;;;31.02;6.88;;;;;;;4.50;100.00;102014.13;4807119;29;20033;-83
2023/01/31 04:56:15;;;;;;;32.15;7.43;;;;;;;4.50;100.00;102005.81;4791902;29;20164;-84
2023/01/31 04:58:40;;;;;;;30.67;6.80;;;;;;;4.54;100.00;101998.53;4796741;29;20092;-83
2023/01/31 05:01:06;;;;;;;33.75;9.25;;;;;;;4.56;100.00;102010.13;4785236;29;20035;-83
2023/01/31 05:03:32;;;;;;;34.60;6.10;;;;;;;4.62;100.00;102011.66;4778638;29;20035;-83
2023/01/31 05:05:57;;;;;;;28.38;7.60;;;;;;;4.62;100.00;101995.03;4793671;29;20093;-82
2023/01/31 05:08:22;;;;;;;21.67;6.50;;;;;;;4.67;100.00;101996.88;4797366;29;20034;-82
2023/01/31 05:10:48;;;;;;;23.75;7.93;;;;;;;4.59;100.00;101987.31;4792132;29;20034;-83
2023/01/31 05:13:13;;;;;;;27.27;7.95;;;;;;;4.64;100.00;101998.31;4779251;29;20404;-83
2023/01/31 05:15:39;;;;;;;22.25;7.50;;;;;;;4.65;100.00;101988.84;4780149;29;20073;-83
2023/01/31 05:18:05;;;;;;;29.27;7.57;;;;;;;4.64;100.00;101986.41;4774975;29;20071;-84
2023/01/31 05:20:38;;;;;;;32.67;10.27;;;;;;;4.64;100.00;101987.22;4800754;29;20150;-82
2023/01/31 05:23:04;;;;;;;23.92;7.45;;;;;;;4.65;100.00;101993.59;4793604;29;20117;-83
2023/01/31 05:25:30;;;;;;;39.90;8.52;;;;;;;4.66;100.00;101993.28;4793843;29;20153;-82
2023/01/31 05:27:55;;;;;;;25.42;7.28;;;;;;;4.67;100.00;101988.56;4778378;29;20042;-83
2023/01/31 05:30:23;;;;;;;32.20;9.50;;;;;;;4.69;100.00;101980.75;4777109;29;20034;-82
2023/01/31 05:32:49;;;;;;;53.63;12.55;;;;;;;4.68;100.00;101971.59;4789238;29;20638;-82
2023/01/31 05:35:14;;;;;;;28.40;8.98;;;;;;;4.68;100.00;101979.94;4792570;29;20031;-83
2023/01/31 05:37:41;;;;;;;30.38;9.02;;;;;;;4.66;100.00;101973.88;4797010;29;20034;-83
2023/01/31 05:40:09;;;;;;;35.00;10.10;;;;;;;4.69;100.00;101970.47;4777208;29;20150;-83
2023/01/31 05:42:35;;;;;;;27.65;10.77;;;;;;;4.66;100.00;101962.78;4798019;29;20480;-82
2023/01/31 05:45:00;;;;;;;40.50;9.80;;;;;;;4.69;100.00;101955.78;4778878;29;20059;-83
2023/01/31 05:47:25;;;;;;;24.40;9.50;;;;;;;4.67;100.00;101967.19;4791642;29;20488;-82
2023/01/31 05:49:51;;;;;;;26.08;8.45;;;;;;;4.69;100.00;101966.88;4792851;29;20066;-82
2023/01/31 05:52:16;;;;;;;33.42;9.90;;;;;;;4.71;100.00;101969.34;4776636;29;20062;-83
2023/01/31 05:54:41;;;;;;;31.63;13.10;;;;;;;4.69;100.00;101976.00;4780200;29;20066;-82
2023/01/31 05:57:07;;;;;;;35.85;9.93;;;;;;;4.71;100.00;101963.78;4798469;29;20031;-82
2023/01/31 05:59:32;;;;;;;47.65;12.30;;;;;;;4.72;100.00;101970.97;4780330;29;20519;-83
2023/01/31 06:01:58;;;;;;;35.75;9.40;;;;;;;4.71;100.00;101966.56;4780391;29;20059;-83
2023/01/31 06:04:23;;;;;;;34.45;11.27;;;;;;;4.72;100.00;101968.19;4794211;29;20031;-83
2023/01/31 06:06:48;;;;;;;41.92;10.25;;;;;;;4.75;100.00;101964.81;4778135;29;20031;-83
2023/01/31 06:09:14;;;;;;;29.70;10.05;;;;;;;4.75;100.00;101962.03;4796558;29;20047;-83
2023/01/31 06:11:39;;;;;;;36.88;9.23;;;;;;;4.73;100.00;101955.97;4777621;29;20035;-82
2023/01/31 06:14:05;;;;;;;30.23;9.18;;;;;;;4.74;100.00;101958.44;4784734;29;20043;-82
2023/01/31 06:16:31;;;;;;;37.22;9.50;;;;;;;4.80;100.00;101948.03;4801894;29;20033;-83
2023/01/31 06:18:56;;;;;;;21.65;8.48;;;;;;;4.79;100.00;101938.09;4800401;29;20035;-83
2023/01/31 06:21:22;;;;;;;37.13;10.10;;;;;;;4.78;100.00;101942.00;4783618;29;20031;-83
2023/01/31 06:23:47;;;;;;;30.92;9.45;;;;;;;4.81;100.00;101941.38;4781028;29;20499;-83
2023/01/31 06:26:13;;;;;;;29.67;9.48;;;;;;;4.82;100.00;101931.91;4779577;29;20095;-83
2023/01/31 06:28:38;;;;;;;29.23;8.98;;;;;;;4.81;100.00;101921.97;4793162;29;20054;-83
2023/01/31 06:31:08;;;;;;;34.97;9.32;;;;;;;4.81;100.00;101921.97;4779471;29;20125;-83
2023/01/31 06:33:33;;;;;;;28.75;7.63;;;;;;;4.81;100.00;101925.53;4781422;29;20026;-83
2023/01/31 06:35:59;;;;;;;36.47;9.02;;;;;;;4.85;100.00;101925.75;4779371;29;20148;-82
2023/01/31 06:38:24;;;;;;;29.30;10.35;;;;;;;4.84;100.00;101921.31;4784767;29;20035;-82
2023/01/31 06:40:50;;;;;;;30.40;7.50;;;;;;;4.85;100.00;101918.25;4779706;29;20069;-83
2023/01/31 06:43:15;;;;;;;25.42;9.50;;;;;;;4.89;100.00;101921.19;4795870;29;20039;-83
2023/01/31 06:45:43;;;;;;;31.65;8.30;;;;;;;4.88;100.00;101925.13;4793772;29;20549;-83
2023/01/31 06:48:09;;;;;;;21.58;7.75;;;;;;;4.86;100.00;101910.72;4780632;29;20030;-83
2023/01/31 06:50:35;;;;;;;25.13;9.48;;;;;;;4.89;100.00;101915.63;4777073;29;20035;-83
2023/01/31 06:53:00;;;;;;;34.15;8.60;;;;;;;4.89;100.00;101910.09;4794496;29;20126;-83
2023/01/31 06:55:26;;;;;;;26.38;7.30;;;;;;;4.93;100.00;101911.09;4792086;29;20035;-82
2023/01/31 06:57:51;;;;;;;34.42;6.97;;;;;;;4.92;100.00;101912.25;4796117;29;20035;-83
2023/01/31 07:00:17;;;;;;;34.03;8.23;;;;;;;4.93;100.00;101911.09;4797570;29;20656;-82
2023/01/31 07:02:43;;;;;;;28.23;8.57;;;;;;;4.95;100.00;101908.84;4789765;29;20035;-83
2023/01/31 07:05:09;;;;;;;23.55;6.15;;;;;;;4.95;100.00;101903.28;4789538;29;20031;-83
2023/01/31 07:07:34;;;;;;;32.47;7.30;;;;;;;4.96;100.00;101913.25;4794902;29;20057;-82
2023/01/31 07:09:59;;;;;;;39.15;9.35;;;;;;;4.97;100.00;101898.25;4784810;29;20110;-82
2023/01/31 07:12:25;;;;;;;18.88;7.75;;;;;;;4.97;100.00;101900.22;4773221;29;20043;-83
2023/01/31 07:14:51;;;;;;;21.50;6.72;;;;;;;5.12;100.00;101885.94;4782102;29;20284;-83
2023/01/31 07:17:16;;;;;;;17.83;5.80;;;;;;;5.14;100.00;101897.53;4793609;29;20031;-83
2023/01/31 07:19:42;;;;;;;32.50;6.90;;;;;;;5.03;100.00;101897.00;4803339;29;20034;-83
2023/01/31 07:22:07;;;;;;;29.52;8.38;;;;;;;4.99;100.00;101886.84;4775440;29;20130;-83
2023/01/31 07:24:32;;;;;;;26.92;8.63;;;;;;;5.00;100.00;101889.31;4794724;29;20500;-83
2023/01/31 07:26:59;;;;;;;30.33;7.82;;;;;;;5.00;100.00;101891.28;4786205;29;20033;-83
2023/01/31 07:29:24;;;;;;;35.65;8.32;;;;;;;4.99;100.00;101882.09;4779892;29;20039;-82
2023/01/31 07:31:50;;;;;;;25.55;7.47;;;;;;;4.99;100.00;101887.66;4788588;29;20046;-82
2023/01/31 07:34:15;;;;;;;20.45;8.35;;;;;;;5.00;100.00;101877.41;4773686;30;20066;-83
2023/01/31 07:36:41;;;;;;;25.55;7.95;;;;;;;5.04;100.00;101881.19;4780341;30;20031;-83
2023/01/31 07:39:06;;;;;;;28.20;6.95;;;;;;;4.97;100.00;101881.59;4785655;29;20488;-83
2023/01/31 07:41:31;;;;;;;27.98;8.07;;;;;;;4.95;100.00;101864.44;4778656;29;20042;-83
2023/01/31 07:43:57;;;;;;;27.45;6.95;;;;;;;4.89;100.00;101861.00;4777609;29;20035;-83
2023/01/31 07:46:22;;;;;;;24.95;7.07;;;;;;;4.89;100.00;101857.38;4778388;29;20035;-83
2023/01/31 07:48:48;;;;;;;23.77;7.30;;;;;;;4.97;100.00;101845.53;4797334;29;20043;-82
2023/01/31 07:51:13;;;;;;;28.95;8.80;;;;;;;4.92;100.00;101850.41;4781854;30;20043;-81
2023/01/31 07:53:41;;;;;;;25.58;7.90;;;;;;;4.90;100.00;101831.28;4778923;30;20035;-81
2023/01/31 07:56:07;;;;;;;31.42;7.15;;;;;;;4.93;100.00;101838.16;4778059;29;20039;-81
2023/01/31 07:58:37;;;;;;;28.95;7.55;;;;;;;4.94;100.00;101842.59;4780867;29;20110;-81
2023/01/31 08:03:47;;;;;;;27.40;6.43;;;;;;;4.91;100.00;101841.25;4778596;30;20034;-82
2023/01/31 08:06:13;;;;;;;28.08;7.15;;;;;;;4.94;100.00;101854.50;4775531;29;20481;-82
2023/01/31 08:08:40;;;;;;;28.63;8.13;;;;;;;4.93;100.00;101840.94;4794437;29;20028;-81
2023/01/31 08:11:06;;;;;;;22.73;6.38;;;;;;;4.89;100.00;101843.50;4783182;30;20039;-81
2023/01/31 08:13:34;;;;;;;21.13;7.30;;;;;;;4.92;100.00;101840.13;4784103;29;20043;-81
2023/01/31 08:16:00;;;;;;;27.20;7.50;;;;;;;4.91;100.00;101841.25;4777030;29;20456;-81
2023/01/31 08:18:26;;;;;;;26.52;7.40;;;;;;;4.93;100.00;101843.69;4779396;30;20492;-81
2023/01/31 08:20:51;;;;;;;21.83;6.35;;;;;;;4.94;100.00;101848.94;4782512;30;20061;-81
2023/01/31 08:23:16;;;;;;;29.75;7.82;;;;;;;4.97;100.00;101845.53;4778595;30;20051;-82
2023/01/31 08:25:42;;;;;;;30.95;7.97;;;;;;;4.98;100.00;101847.19;4782876;30;20497;-82
2023/01/31 08:28:08;;;;;;;29.67;8.07;;;;;;;5.01;100.00;101837.41;4778545;30;20514;-81
2023/01/31 08:30:33;;;;;;;23.52;6.25;;;;;;;5.07;100.00;101842.50;4782171;30;20043;-81
2023/01/31 08:32:59;;;;;;;28.42;7.32;;;;;;;5.07;100.00;101836.94;4782120;30;20028;-81
2023/01/31 08:35:25;;;;;;;25.95;8.18;;;;;;;5.06;100.00;101826.19;4780886;29;20418;-81
2023/01/31 08:37:51;;;;;;;26.92;6.60;;;;;;;5.06;100.00;101827.00;4782936;29;20038;-81
2023/01/31 08:40:17;;;;;;;23.73;6.63;;;;;;;5.10;100.00;101832.72;4784932;29;20028;-81
2023/01/31 08:42:42;;;;;;;24.17;7.07;;;;;;;5.11;100.00;101839.91;4799619;29;20062;-81
2023/01/31 08:45:08;;;;;;;23.30;6.60;;;;;;;5.13;100.00;101825.72;4783235;29;20027;-81
2023/01/31 08:47:35;;;;;;;28.23;7.03;;;;;;;5.12;100.00;101824.06;4793633;29;20062;-81
2023/01/31 08:50:01;;;;;;;19.17;5.65;;;;;;;5.11;100.00;101822.44;4784296;29;20396;-81
2023/01/31 08:52:26;;;;;;;17.02;7.15;;;;;;;5.15;100.00;101817.91;4800524;29;20035;-81
2023/01/31 08:54:51;;;;;;;24.75;5.85;;;;;;;5.17;100.00;101826.72;4779235;29;20058;-81
2023/01/31 08:57:17;;;;;;;19.38;6.57;;;;;;;5.16;100.00;101827.84;4791924;29;20114;-81
2023/01/31 08:59:42;;;;;;;20.17;6.07;;;;;;;5.18;100.00;101839.47;4781125;30;20118;-81
2023/01/31 09:02:10;;;;;;;20.85;6.43;;;;;;;5.21;100.00;101841.63;4783244;30;20495;-81
2023/01/31 09:04:35;;;;;;;28.38;6.57;;;;;;;5.21;100.00;101844.41;4785128;29;20023;-81
2023/01/31 09:07:01;;;;;;;16.05;5.35;;;;;;;5.23;100.00;101847.66;4788314;30;20039;-80
2023/01/31 09:09:26;;;;;;;13.63;5.45;;;;;;;5.23;100.00;101836.56;4787428;30;20098;-81
2023/01/31 09:11:51;;;;;;;13.48;4.05;;;;;;;5.23;100.00;101845.72;4785011;29;20035;-81
2023/01/31 09:14:17;;;;;;;23.33;7.05;;;;;;;5.25;100.00;101835.09;4788459;29;20031;-82
2023/01/31 09:16:44;;;;;;;20.65;5.45;;;;;;;5.28;100.00;101844.75;4785176;30;20035;-81
2023/01/31 09:19:10;;;;;;;15.00;5.25;;;;;;;5.36;100.00;101840.38;4786482;30;20056;-82
2023/01/31 09:21:35;;;;;;;15.65;6.05;;;;;;;5.40;100.00;101821.94;4799435;29;20058;-81
2023/01/31 09:24:02;;;;;;;19.98;5.15;;;;;;;5.41;100.00;101826.34;4786869;29;20039;-82
2023/01/31 09:26:28;;;;;;;23.25;5.45;;;;;;;5.42;100.00;101817.72;4789177;29;20030;-82
2023/01/31 09:28:53;;;;;;;26.23;6.68;;;;;;;5.43;100.00;101819.34;4798718;29;20396;-82
2023/01/31 09:31:19;;;;;;;17.70;5.03;;;;;;;5.48;100.00;101808.09;4796355;29;20030;-81
2023/01/31 09:33:45;;;;;;;26.40;5.90;;;;;;;5.52;100.00;101804.69;4790699;29;20122;-82
2023/01/31 09:36:15;;;;;;;12.73;4.35;;;;;;;5.54;100.00;101800.44;4803389;29;20031;-81
2023/01/31 09:38:41;;;;;;;13.63;4.60;;;;;;;5.57;100.00;101810.09;4801354;29;20023;-81
2023/01/31 09:41:21;;;;;;;18.13;4.25;;;;;;;5.73;100.00;101788.25;4800380;29;20096;-82
2023/01/31 09:43:54;;;;;;;19.60;3.63;;;;;;;5.77;100.00;101780.91;4803231;29;20039;-81
2023/01/31 09:46:25;;;;;;;21.20;4.18;;;;;;;5.77;100.00;101776.16;4783314;29;20091;-82
2023/01/31 09:48:54;;;;;;;21.88;4.57;;;;;;;5.84;100.00;101773.75;4798497;29;20038;-82
2023/01/31 09:51:20;;;;;;;28.27;5.15;;;;;;;5.93;100.00;101782.09;4799653;29;20022;-82
2023/01/31 09:53:46;;;;;;;13.38;3.75;;;;;;;5.95;100.00;101773.47;4796880;29;20041;-82
2023/01/31 09:56:23;;;;;;;18.35;3.92;;;;;;;6.01;100.00;101766.59;4797220;29;20026;-82
2023/01/31 09:59:07;;;;;;;19.25;5.05;;;;;;;6.02;100.00;101768.22;4793109;29;20046;-81
2023/01/31 10:01:56;;;;;;;21.50;4.25;;;;;;;6.04;100.00;101750.09;4796097;29;20404;-82
2023/01/31 10:04:34;;;;;;;24.42;4.13;;;;;;;6.08;100.00;101755.81;4801199;29;20035;-82
2023/01/31 10:07:27;;;;;;;20.20;4.32;;;;;;;6.08;100.00;101764.16;4800802;29;20023;-82
2023/01/31 10:10:13;;;;;;;22.65;6.22;;;;;;;6.04;100.00;101763.16;4781586;29;20038;-82
2023/01/31 10:12:46;;;;;;;16.73;3.30;;;;;;;6.04;100.00;101771.50;4794996;29;20045;-82
2023/01/31 10:15:25;;;;;;;17.17;3.75;;;;;;;6.03;100.00;101767.06;4812296;29;20500;-81
2023/01/31 10:18:01;;;;;;;26.55;4.63;;;;;;;6.07;100.00;101768.06;4799310;29;20077;-81
2023/01/31 10:20:29;;;;;;;14.60;5.30;;;;;;;6.05;100.00;101770.34;4802416;29;20042;-81
2023/01/31 10:23:03;;;;;;;12.43;3.45;;;;;;;6.06;100.00;101753.34;4786970;29;20038;-81
2023/01/31 10:25:52;;;;;;;15.30;4.03;;;;;;;6.09;100.00;101741.59;4781665;29;20054;-81
2023/01/31 10:28:20;;;;;;;38.55;6.03;;;;;;;6.05;100.00;101745.34;4763793;30;20047;-82
2023/01/31 10:30:54;;;;;;;26.35;5.28;;;;;;;6.07;100.00;101760.56;4758108;30;20052;-81
2023/01/31 10:33:46;;;;;;;10.48;3.97;;;;;;;6.10;100.00;101756.31;4759232;30;20411;-81
2023/01/31 10:36:28;;;;;;;22.75;6.38;;;;;;;6.14;100.00;101743.41;4762921;30;20070;-81
2023/01/31 10:39:01;;;;;;;23.98;4.97;;;;;;;6.14;100.00;101754.50;4761780;30;20028;-82
2023/01/31 10:42:01;;;;;;;19.08;4.60;;;;;;;6.09;100.00;101746.31;4775428;30;20548;-81
2023/01/31 10:44:51;;;;;;;21.52;4.55;;;;;;;6.06;100.00;101741.44;4759033;30;20405;-82
2023/01/31 10:47:18;;;;;;;20.88;3.97;;;;;;;6.03;100.00;101747.63;4764151;30;20050;-81
2023/01/31 10:49:49;;;;;;;25.95;6.00;;;;;;;6.01;100.00;101749.91;4776386;29;20053;-81
2023/01/31 10:52:36;;;;;;;18.40;4.72;;;;;;;5.98;100.00;101759.72;4762346;30;20031;-81
2023/01/31 10:55:29;;;;;;;19.42;7.13;;;;;;;6.01;100.00;101772.13;4757780;30;20043;-81
2023/01/31 10:57:56;;;;;;;22.67;4.38;;;;;;;5.98;100.00;101776.38;4761874;30;20035;-81
2023/01/31 11:00:27;;;;;;;19.27;5.28;;;;;;;6.05;100.00;101767.56;4761966;30;20453;-81
2023/01/31 11:02:52;;;;;;;14.35;5.13;;;;;;;6.05;100.00;101770.34;4761586;30;20067;-82
2023/01/31 11:05:21;;;;;;;23.90;5.18;;;;;;;6.01;100.00;101763.81;4776668;30;20067;-81
2023/01/31 11:07:47;;;;;;;25.67;5.68;;;;;;;6.04;100.00;101765.94;4772721;30;20114;-82
2023/01/31 11:10:31;;;;;;;29.48;5.55;;;;;;;6.05;100.00;101753.66;4759984;30;20486;-81
2023/01/31 11:13:03;;;;;;;20.27;7.53;;;;;;;5.99;100.00;101760.56;4760459;30;20089;-81
2023/01/31 11:15:37;;;;;;;19.55;6.90;;;;;;;6.00;100.00;101762.19;4759975;30;20032;-81
2023/01/31 11:18:02;;;;;;;20.75;6.35;;;;;;;5.96;100.00;101752.84;4763306;30;20038;-81
2023/01/31 11:20:44;;;;;;;21.70;5.00;;;;;;;5.98;100.00;101745.00;4778396;29;20466;-81
2023/01/31 11:23:15;;;;;;;24.60;7.22;;;;;;;6.00;100.00;101746.31;4766023;30;20489;-81
2023/01/31 11:25:47;;;;;;;15.48;5.72;;;;;;;5.98;100.00;101740.25;4799163;29;20043;-82
2023/01/31 11:28:24;;;;;;;18.05;5.38;;;;;;;5.93;100.00;101737.63;4780069;29;20474;-81
2023/01/31 11:30:52;;;;;;;15.40;5.60;;;;;;;6.01;100.00;101734.06;4781334;29;20407;-82
2023/01/31 11:33:46;;;;;;;25.00;7.60;;;;;;;6.00;100.00;101737.97;4797054;29;20028;-81